sensor_id;sensor_type;location;lat;lon;timestamp;temperature;humidity
439;DHT22;206;48.782;9.252;2023-04-24T00:00:28;13.80;46.80
439;DHT22;206;48.782;9.252;2023-04-24T00:02:54;13.80;46.60
439;DHT22;206;48.782;9.252;2023-04-24T00:05:22;13.80;46.40
439;DHT22;206;48.782;9.252;2023-04-24T00:07:47;13.80;47.00
439;DHT22;206;48.782;9.252;2023-04-24T00:10:13;13.90;46.20
439;DHT22;206;48.782;9.252;2023-04-24T00:12:39;13.90;46.20
439;DHT22;206;48.782;9.252;2023-04-24T00:15:05;13.90;45.90
439;DHT22;206;48.782;9.252;2023-04-24T00:17:31;13.80;46.40
439;DHT22;206;48.782;9.252;2023-04-24T00:19:57;13.90;45.80
439;DHT22;206;48.782;9.252;2023-04-24T00:22:27;13.90;46.10
439;DHT22;206;48.782;9.252;2023-04-24T00:24:53;13.90;46.20
439;DHT22;206;48.782;9.252;2023-04-24T00:27:18;14.00;45.90
439;DHT22;206;48.782;9.252;2023-04-24T00:29:44;14.00;45.40
439;DHT22;206;48.782;9.252;2023-04-24T00:32:09;14.00;45.30
439;DHT22;206;48.782;9.252;2023-04-24T00:34:35;14.00;45.40
439;DHT22;206;48.782;9.252;2023-04-24T00:37:01;14.00;44.60
439;DHT22;206;48.782;9.252;2023-04-24T00:39:26;14.00;45.30
439;DHT22;206;48.782;9.252;2023-04-24T00:41:52;14.00;45.20
439;DHT22;206;48.782;9.252;2023-04-24T00:44:19;13.90;44.90
439;DHT22;206;48.782;9.252;2023-04-24T00:46:46;13.90;45.10
439;DHT22;206;48.782;9.252;2023-04-24T00:49:18;13.90;45.10
439;DHT22;206;48.782;9.252;2023-04-24T00:51:44;14.00;44.20
439;DHT22;206;48.782;9.252;2023-04-24T00:54:13;14.00;43.80
439;DHT22;206;48.782;9.252;2023-04-24T00:56:40;14.00;43.60
439;DHT22;206;48.782;9.252;2023-04-24T00:59:06;14.00;43.70
439;DHT22;206;48.782;9.252;2023-04-24T01:01:32;14.00;43.70
439;DHT22;206;48.782;9.252;2023-04-24T01:03:58;14.00;43.40
439;DHT22;206;48.782;9.252;2023-04-24T01:06:28;14.00;43.20
439;DHT22;206;48.782;9.252;2023-04-24T01:08:54;14.00;43.30
439;DHT22;206;48.782;9.252;2023-04-24T01:11:21;14.00;43.10
439;DHT22;206;48.782;9.252;2023-04-24T01:13:48;14.10;42.90
439;DHT22;206;48.782;9.252;2023-04-24T01:16:14;14.10;43.10
439;DHT22;206;48.782;9.252;2023-04-24T01:18:43;14.10;42.80
439;DHT22;206;48.782;9.252;2023-04-24T01:21:09;14.10;42.80
439;DHT22;206;48.782;9.252;2023-04-24T01:23:37;14.10;43.00
439;DHT22;206;48.782;9.252;2023-04-24T01:26:02;14.00;42.40
439;DHT22;206;48.782;9.252;2023-04-24T01:28:28;14.00;42.40
439;DHT22;206;48.782;9.252;2023-04-24T01:30:54;14.00;42.40
439;DHT22;206;48.782;9.252;2023-04-24T01:33:21;14.00;42.00
439;DHT22;206;48.782;9.252;2023-04-24T01:35:48;14.10;42.50
439;DHT22;206;48.782;9.252;2023-04-24T01:38:14;14.10;44.60
439;DHT22;206;48.782;9.252;2023-04-24T01:40:39;14.10;45.90
439;DHT22;206;48.782;9.252;2023-04-24T01:43:05;14.10;45.30
439;DHT22;206;48.782;9.252;2023-04-24T01:45:31;14.10;45.70
439;DHT22;206;48.782;9.252;2023-04-24T01:47:57;14.10;45.10
439;DHT22;206;48.782;9.252;2023-04-24T01:50:22;14.10;46.60
439;DHT22;206;48.782;9.252;2023-04-24T01:52:48;14.10;45.30
439;DHT22;206;48.782;9.252;2023-04-24T01:55:14;14.00;45.30
439;DHT22;206;48.782;9.252;2023-04-24T01:57:40;14.00;45.20
439;DHT22;206;48.782;9.252;2023-04-24T02:00:06;14.00;45.80
439;DHT22;206;48.782;9.252;2023-04-24T02:02:32;13.90;45.50
439;DHT22;206;48.782;9.252;2023-04-24T02:04:58;13.90;46.00
439;DHT22;206;48.782;9.252;2023-04-24T02:07:24;14.00;46.30
439;DHT22;206;48.782;9.252;2023-04-24T02:09:50;13.90;45.50
439;DHT22;206;48.782;9.252;2023-04-24T02:12:15;13.90;46.00
439;DHT22;206;48.782;9.252;2023-04-24T02:14:43;13.90;47.00
439;DHT22;206;48.782;9.252;2023-04-24T02:17:09;13.90;46.20
439;DHT22;206;48.782;9.252;2023-04-24T02:19:34;13.80;46.70
439;DHT22;206;48.782;9.252;2023-04-24T02:22:00;13.80;46.40
439;DHT22;206;48.782;9.252;2023-04-24T02:24:25;13.80;46.30
439;DHT22;206;48.782;9.252;2023-04-24T02:26:51;13.80;47.10
439;DHT22;206;48.782;9.252;2023-04-24T02:29:17;13.80;46.30
439;DHT22;206;48.782;9.252;2023-04-24T02:31:43;13.70;46.50
439;DHT22;206;48.782;9.252;2023-04-24T02:34:08;13.80;47.10
439;DHT22;206;48.782;9.252;2023-04-24T02:36:34;13.70;46.00
439;DHT22;206;48.782;9.252;2023-04-24T02:39:00;13.70;45.90
439;DHT22;206;48.782;9.252;2023-04-24T02:41:26;13.70;46.10
439;DHT22;206;48.782;9.252;2023-04-24T02:43:57;13.80;45.60
439;DHT22;206;48.782;9.252;2023-04-24T02:46:23;13.70;45.80
439;DHT22;206;48.782;9.252;2023-04-24T02:48:48;13.70;46.20
439;DHT22;206;48.782;9.252;2023-04-24T02:51:14;13.80;46.30
439;DHT22;206;48.782;9.252;2023-04-24T02:53:39;13.80;47.10
439;DHT22;206;48.782;9.252;2023-04-24T02:56:05;13.80;47.10
439;DHT22;206;48.782;9.252;2023-04-24T02:58:30;13.90;48.50
439;DHT22;206;48.782;9.252;2023-04-24T03:00:56;13.90;49.20
439;DHT22;206;48.782;9.252;2023-04-24T03:03:23;13.90;49.20
439;DHT22;206;48.782;9.252;2023-04-24T03:05:49;13.90;51.10
439;DHT22;206;48.782;9.252;2023-04-24T03:08:14;13.90;50.10
439;DHT22;206;48.782;9.252;2023-04-24T03:10:42;13.90;50.40
439;DHT22;206;48.782;9.252;2023-04-24T03:13:07;13.90;51.10
439;DHT22;206;48.782;9.252;2023-04-24T03:15:33;13.90;51.00
439;DHT22;206;48.782;9.252;2023-04-24T03:17:58;13.90;50.70
439;DHT22;206;48.782;9.252;2023-04-24T03:20:25;13.80;50.70
439;DHT22;206;48.782;9.252;2023-04-24T03:22:51;13.80;51.00
439;DHT22;206;48.782;9.252;2023-04-24T03:25:17;13.70;51.80
439;DHT22;206;48.782;9.252;2023-04-24T03:27:42;13.60;52.70
439;DHT22;206;48.782;9.252;2023-04-24T03:30:08;13.60;53.50
439;DHT22;206;48.782;9.252;2023-04-24T03:32:34;13.50;52.30
439;DHT22;206;48.782;9.252;2023-04-24T03:35:00;13.40;51.60
439;DHT22;206;48.782;9.252;2023-04-24T03:37:26;13.40;53.10
439;DHT22;206;48.782;9.252;2023-04-24T03:39:52;13.30;54.30
439;DHT22;206;48.782;9.252;2023-04-24T03:42:17;13.30;54.30
439;DHT22;206;48.782;9.252;2023-04-24T03:44:43;13.30;54.90
439;DHT22;206;48.782;9.252;2023-04-24T03:47:09;13.30;55.40
439;DHT22;206;48.782;9.252;2023-04-24T03:49:34;13.20;56.20
439;DHT22;206;48.782;9.252;2023-04-24T03:52:00;13.20;54.80
439;DHT22;206;48.782;9.252;2023-04-24T03:54:25;13.20;55.30
439;DHT22;206;48.782;9.252;2023-04-24T03:56:51;13.20;56.20
439;DHT22;206;48.782;9.252;2023-04-24T03:59:16;13.10;55.90
439;DHT22;206;48.782;9.252;2023-04-24T04:01:42;13.10;56.00
439;DHT22;206;48.782;9.252;2023-04-24T04:04:07;13.10;56.10
439;DHT22;206;48.782;9.252;2023-04-24T04:06:33;13.10;56.60
439;DHT22;206;48.782;9.252;2023-04-24T04:09:00;13.10;56.20
439;DHT22;206;48.782;9.252;2023-04-24T04:11:26;13.00;56.40
439;DHT22;206;48.782;9.252;2023-04-24T04:13:51;13.00;56.50
439;DHT22;206;48.782;9.252;2023-04-24T04:16:17;13.00;57.30
439;DHT22;206;48.782;9.252;2023-04-24T04:18:43;13.00;58.30
439;DHT22;206;48.782;9.252;2023-04-24T04:21:09;13.00;57.40
439;DHT22;206;48.782;9.252;2023-04-24T04:23:35;13.10;58.30
439;DHT22;206;48.782;9.252;2023-04-24T04:26:01;13.10;56.90
439;DHT22;206;48.782;9.252;2023-04-24T04:28:27;13.10;57.00
439;DHT22;206;48.782;9.252;2023-04-24T04:30:53;13.20;56.90
439;DHT22;206;48.782;9.252;2023-04-24T04:33:25;13.20;57.70
439;DHT22;206;48.782;9.252;2023-04-24T04:35:51;13.20;58.50
439;DHT22;206;48.782;9.252;2023-04-24T04:38:22;13.10;56.10
439;DHT22;206;48.782;9.252;2023-04-24T04:40:48;13.00;56.60
439;DHT22;206;48.782;9.252;2023-04-24T04:43:14;12.90;57.20
439;DHT22;206;48.782;9.252;2023-04-24T04:45:40;12.90;56.80
439;DHT22;206;48.782;9.252;2023-04-24T04:48:08;12.90;55.90
439;DHT22;206;48.782;9.252;2023-04-24T04:50:35;13.00;54.90
439;DHT22;206;48.782;9.252;2023-04-24T04:53:00;13.00;56.00
439;DHT22;206;48.782;9.252;2023-04-24T04:55:26;13.00;54.60
439;DHT22;206;48.782;9.252;2023-04-24T04:57:52;13.00;52.00
439;DHT22;206;48.782;9.252;2023-04-24T05:00:18;12.90;48.70
439;DHT22;206;48.782;9.252;2023-04-24T05:02:43;12.90;50.00
439;DHT22;206;48.782;9.252;2023-04-24T05:05:09;12.90;48.20
439;DHT22;206;48.782;9.252;2023-04-24T05:07:35;12.80;48.30
439;DHT22;206;48.782;9.252;2023-04-24T05:10:01;12.90;48.10
439;DHT22;206;48.782;9.252;2023-04-24T05:12:26;12.90;47.60
439;DHT22;206;48.782;9.252;2023-04-24T05:14:52;12.90;48.00
439;DHT22;206;48.782;9.252;2023-04-24T05:17:18;13.00;46.50
439;DHT22;206;48.782;9.252;2023-04-24T05:19:44;13.00;46.40
439;DHT22;206;48.782;9.252;2023-04-24T05:22:10;12.90;46.90
439;DHT22;206;48.782;9.252;2023-04-24T05:24:36;12.90;46.30
439;DHT22;206;48.782;9.252;2023-04-24T05:27:02;12.90;47.60
439;DHT22;206;48.782;9.252;2023-04-24T05:29:30;12.90;46.40
439;DHT22;206;48.782;9.252;2023-04-24T05:31:57;12.90;47.40
439;DHT22;206;48.782;9.252;2023-04-24T05:34:23;13.00;47.00
439;DHT22;206;48.782;9.252;2023-04-24T05:36:48;13.10;49.00
439;DHT22;206;48.782;9.252;2023-04-24T05:39:15;13.10;47.30
439;DHT22;206;48.782;9.252;2023-04-24T05:41:41;13.10;47.20
439;DHT22;206;48.782;9.252;2023-04-24T05:44:07;13.10;47.40
439;DHT22;206;48.782;9.252;2023-04-24T05:46:32;13.20;46.60
439;DHT22;206;48.782;9.252;2023-04-24T05:48:58;13.20;46.60
439;DHT22;206;48.782;9.252;2023-04-24T05:51:23;13.20;46.20
439;DHT22;206;48.782;9.252;2023-04-24T05:53:49;13.30;44.70
439;DHT22;206;48.782;9.252;2023-04-24T05:56:15;13.30;45.30
439;DHT22;206;48.782;9.252;2023-04-24T05:58:41;13.40;44.70
439;DHT22;206;48.782;9.252;2023-04-24T06:01:07;13.40;44.20
439;DHT22;206;48.782;9.252;2023-04-24T06:03:32;13.50;44.60
439;DHT22;206;48.782;9.252;2023-04-24T06:05:58;13.60;43.60
439;DHT22;206;48.782;9.252;2023-04-24T06:08:24;13.60;43.00
439;DHT22;206;48.782;9.252;2023-04-24T06:10:49;13.60;43.20
439;DHT22;206;48.782;9.252;2023-04-24T06:13:15;13.60;42.00
439;DHT22;206;48.782;9.252;2023-04-24T06:15:41;13.70;42.10
439;DHT22;206;48.782;9.252;2023-04-24T06:18:07;13.80;42.20
439;DHT22;206;48.782;9.252;2023-04-24T06:20:33;13.90;42.00
439;DHT22;206;48.782;9.252;2023-04-24T06:22:58;14.00;40.60
439;DHT22;206;48.782;9.252;2023-04-24T06:25:28;14.20;39.20
439;DHT22;206;48.782;9.252;2023-04-24T06:27:55;14.40;38.60
439;DHT22;206;48.782;9.252;2023-04-24T06:30:22;14.50;37.80
439;DHT22;206;48.782;9.252;2023-04-24T06:32:47;14.60;36.80
439;DHT22;206;48.782;9.252;2023-04-24T06:35:13;14.70;36.70
439;DHT22;206;48.782;9.252;2023-04-24T06:37:41;14.90;35.00
439;DHT22;206;48.782;9.252;2023-04-24T06:40:08;15.10;33.70
439;DHT22;206;48.782;9.252;2023-04-24T06:42:33;15.30;32.10
439;DHT22;206;48.782;9.252;2023-04-24T06:45:00;15.50;31.60
439;DHT22;206;48.782;9.252;2023-04-24T06:47:26;15.70;30.80
439;DHT22;206;48.782;9.252;2023-04-24T06:49:52;16.00;29.80
439;DHT22;206;48.782;9.252;2023-04-24T06:52:18;16.80;28.50
439;DHT22;206;48.782;9.252;2023-04-24T06:54:44;17.80;26.20
439;DHT22;206;48.782;9.252;2023-04-24T06:57:09;18.60;23.50
439;DHT22;206;48.782;9.252;2023-04-24T06:59:36;19.70;21.80
439;DHT22;206;48.782;9.252;2023-04-24T07:02:01;20.20;19.40
439;DHT22;206;48.782;9.252;2023-04-24T07:04:27;20.80;18.80
439;DHT22;206;48.782;9.252;2023-04-24T07:06:53;20.70;17.30
439;DHT22;206;48.782;9.252;2023-04-24T07:09:24;20.30;18.40
439;DHT22;206;48.782;9.252;2023-04-24T07:11:51;19.90;18.50
439;DHT22;206;48.782;9.252;2023-04-24T07:14:17;19.60;18.60
439;DHT22;206;48.782;9.252;2023-04-24T07:16:43;19.40;18.60
439;DHT22;206;48.782;9.252;2023-04-24T07:19:09;19.00;20.40
439;DHT22;206;48.782;9.252;2023-04-24T07:21:34;18.40;20.40
439;DHT22;206;48.782;9.252;2023-04-24T07:24:00;17.80;21.40
439;DHT22;206;48.782;9.252;2023-04-24T07:26:28;17.40;21.10
439;DHT22;206;48.782;9.252;2023-04-24T07:28:54;16.70;23.90
439;DHT22;206;48.782;9.252;2023-04-24T07:31:20;16.30;25.10
439;DHT22;206;48.782;9.252;2023-04-24T07:33:46;15.90;25.80
439;DHT22;206;48.782;9.252;2023-04-24T07:36:11;15.60;26.70
439;DHT22;206;48.782;9.252;2023-04-24T07:38:42;15.60;26.50
439;DHT22;206;48.782;9.252;2023-04-24T07:41:07;15.60;25.60
439;DHT22;206;48.782;9.252;2023-04-24T07:43:33;15.50;23.70
439;DHT22;206;48.782;9.252;2023-04-24T07:45:59;15.80;23.10
439;DHT22;206;48.782;9.252;2023-04-24T07:48:25;15.80;22.10
439;DHT22;206;48.782;9.252;2023-04-24T07:50:51;16.20;21.20
439;DHT22;206;48.782;9.252;2023-04-24T07:53:17;16.50;20.90
439;DHT22;206;48.782;9.252;2023-04-24T07:55:43;16.40;20.10
439;DHT22;206;48.782;9.252;2023-04-24T07:58:08;16.40;20.70
439;DHT22;206;48.782;9.252;2023-04-24T08:00:34;16.10;19.50
439;DHT22;206;48.782;9.252;2023-04-24T08:03:00;15.70;20.90
439;DHT22;206;48.782;9.252;2023-04-24T08:05:25;15.70;19.80
439;DHT22;206;48.782;9.252;2023-04-24T08:07:53;15.60;19.60
439;DHT22;206;48.782;9.252;2023-04-24T08:10:18;15.60;20.50
439;DHT22;206;48.782;9.252;2023-04-24T08:12:44;15.80;19.50
439;DHT22;206;48.782;9.252;2023-04-24T08:15:10;15.70;18.90
439;DHT22;206;48.782;9.252;2023-04-24T08:17:36;15.50;19.50
439;DHT22;206;48.782;9.252;2023-04-24T08:20:03;15.30;19.50
439;DHT22;206;48.782;9.252;2023-04-24T08:22:30;15.30;19.20
439;DHT22;206;48.782;9.252;2023-04-24T08:24:57;15.30;19.80
439;DHT22;206;48.782;9.252;2023-04-24T08:27:23;15.30;19.60
439;DHT22;206;48.782;9.252;2023-04-24T08:29:49;15.30;20.00
439;DHT22;206;48.782;9.252;2023-04-24T08:32:15;15.20;19.40
439;DHT22;206;48.782;9.252;2023-04-24T08:34:41;15.30;19.20
439;DHT22;206;48.782;9.252;2023-04-24T08:37:06;15.30;19.20
439;DHT22;206;48.782;9.252;2023-04-24T08:39:32;15.30;19.10
439;DHT22;206;48.782;9.252;2023-04-24T08:41:59;15.30;19.40
439;DHT22;206;48.782;9.252;2023-04-24T08:44:34;15.40;19.30
439;DHT22;206;48.782;9.252;2023-04-24T08:47:01;15.30;19.10
439;DHT22;206;48.782;9.252;2023-04-24T08:49:28;15.30;19.00
439;DHT22;206;48.782;9.252;2023-04-24T08:51:54;15.40;19.10
439;DHT22;206;48.782;9.252;2023-04-24T08:54:20;15.50;18.90
439;DHT22;206;48.782;9.252;2023-04-24T08:56:47;15.40;18.50
439;DHT22;206;48.782;9.252;2023-04-24T08:59:14;15.10;20.50
439;DHT22;206;48.782;9.252;2023-04-24T09:01:41;15.10;20.90
439;DHT22;206;48.782;9.252;2023-04-24T09:04:09;15.10;20.50
439;DHT22;206;48.782;9.252;2023-04-24T09:06:36;15.10;20.50
439;DHT22;206;48.782;9.252;2023-04-24T09:09:02;15.20;20.40
439;DHT22;206;48.782;9.252;2023-04-24T09:11:32;15.40;20.10
439;DHT22;206;48.782;9.252;2023-04-24T09:14:01;15.70;18.80
439;DHT22;206;48.782;9.252;2023-04-24T09:16:27;15.80;18.60
439;DHT22;206;48.782;9.252;2023-04-24T09:18:53;15.80;19.10
439;DHT22;206;48.782;9.252;2023-04-24T09:21:21;15.70;19.40
439;DHT22;206;48.782;9.252;2023-04-24T09:23:46;15.30;19.70
439;DHT22;206;48.782;9.252;2023-04-24T09:26:12;15.10;20.90
439;DHT22;206;48.782;9.252;2023-04-24T09:28:40;14.80;24.00
439;DHT22;206;48.782;9.252;2023-04-24T09:31:08;14.60;24.30
439;DHT22;206;48.782;9.252;2023-04-24T09:33:35;14.60;24.30
439;DHT22;206;48.782;9.252;2023-04-24T09:36:01;14.60;24.20
439;DHT22;206;48.782;9.252;2023-04-24T09:38:37;14.60;24.30
439;DHT22;206;48.782;9.252;2023-04-24T09:41:05;14.60;24.20
439;DHT22;206;48.782;9.252;2023-04-24T09:43:31;14.50;25.00
439;DHT22;206;48.782;9.252;2023-04-24T09:45:58;14.50;26.70
439;DHT22;206;48.782;9.252;2023-04-24T09:48:31;14.70;26.10
439;DHT22;206;48.782;9.252;2023-04-24T09:50:57;14.90;24.80
439;DHT22;206;48.782;9.252;2023-04-24T09:53:25;15.00;23.90
439;DHT22;206;48.782;9.252;2023-04-24T09:55:51;15.10;23.30
439;DHT22;206;48.782;9.252;2023-04-24T09:58:24;15.40;21.70
439;DHT22;206;48.782;9.252;2023-04-24T10:00:50;15.60;21.10
439;DHT22;206;48.782;9.252;2023-04-24T10:03:18;15.90;20.40
439;DHT22;206;48.782;9.252;2023-04-24T10:05:51;16.10;19.90
439;DHT22;206;48.782;9.252;2023-04-24T10:08:17;15.90;21.20
439;DHT22;206;48.782;9.252;2023-04-24T10:10:45;16.00;19.90
439;DHT22;206;48.782;9.252;2023-04-24T10:13:12;15.70;19.00
439;DHT22;206;48.782;9.252;2023-04-24T10:15:40;15.90;24.60
439;DHT22;206;48.782;9.252;2023-04-24T10:18:06;16.00;18.60
439;DHT22;206;48.782;9.252;2023-04-24T10:20:35;16.00;17.40
439;DHT22;206;48.782;9.252;2023-04-24T10:23:01;15.90;16.90
439;DHT22;206;48.782;9.252;2023-04-24T10:25:31;15.70;16.70
439;DHT22;206;48.782;9.252;2023-04-24T10:27:58;15.70;16.40
439;DHT22;206;48.782;9.252;2023-04-24T10:30:26;15.90;15.10
439;DHT22;206;48.782;9.252;2023-04-24T10:32:52;16.20;15.60
439;DHT22;206;48.782;9.252;2023-04-24T10:35:18;16.40;14.30
439;DHT22;206;48.782;9.252;2023-04-24T10:37:59;16.60;14.30
439;DHT22;206;48.782;9.252;2023-04-24T10:40:29;16.80;13.90
439;DHT22;206;48.782;9.252;2023-04-24T10:42:56;16.90;13.30
439;DHT22;206;48.782;9.252;2023-04-24T10:45:23;16.80;13.30
439;DHT22;206;48.782;9.252;2023-04-24T10:48:06;16.60;13.10
439;DHT22;206;48.782;9.252;2023-04-24T10:53:13;15.80;14.80
439;DHT22;206;48.782;9.252;2023-04-24T10:55:50;15.80;15.50
439;DHT22;206;48.782;9.252;2023-04-24T10:58:18;15.70;16.70
439;DHT22;206;48.782;9.252;2023-04-24T11:01:00;15.80;15.90
439;DHT22;206;48.782;9.252;2023-04-24T11:03:31;15.90;15.60
439;DHT22;206;48.782;9.252;2023-04-24T11:08:30;15.80;15.90
439;DHT22;206;48.782;9.252;2023-04-24T11:11:08;15.80;17.30
439;DHT22;206;48.782;9.252;2023-04-24T11:16:35;16.00;15.70
439;DHT22;206;48.782;9.252;2023-04-24T11:32:33;15.70;17.00
439;DHT22;206;48.782;9.252;2023-04-24T11:37:39;16.10;15.50
439;DHT22;206;48.782;9.252;2023-04-24T11:40:10;16.20;15.80
439;DHT22;206;48.782;9.252;2023-04-24T11:42:40;16.40;16.00
439;DHT22;206;48.782;9.252;2023-04-24T11:45:11;16.70;15.20
439;DHT22;206;48.782;9.252;2023-04-24T11:47:38;17.00;14.80
439;DHT22;206;48.782;9.252;2023-04-24T11:50:06;17.00;13.70
439;DHT22;206;48.782;9.252;2023-04-24T11:52:33;17.20;14.60
439;DHT22;206;48.782;9.252;2023-04-24T11:55:01;17.20;13.50
439;DHT22;206;48.782;9.252;2023-04-24T11:57:27;16.80;15.40
439;DHT22;206;48.782;9.252;2023-04-24T11:59:59;16.40;15.70
439;DHT22;206;48.782;9.252;2023-04-24T12:02:26;15.70;16.50
439;DHT22;206;48.782;9.252;2023-04-24T12:04:55;15.30;17.10
439;DHT22;206;48.782;9.252;2023-04-24T12:07:22;15.20;18.10
439;DHT22;206;48.782;9.252;2023-04-24T12:09:58;15.40;17.70
439;DHT22;206;48.782;9.252;2023-04-24T12:12:26;15.70;17.50
439;DHT22;206;48.782;9.252;2023-04-24T12:14:57;16.10;17.40
439;DHT22;206;48.782;9.252;2023-04-24T12:17:33;16.50;17.20
439;DHT22;206;48.782;9.252;2023-04-24T12:20:01;17.00;17.00
439;DHT22;206;48.782;9.252;2023-04-24T12:22:28;17.20;14.70
439;DHT22;206;48.782;9.252;2023-04-24T12:25:01;17.00;13.90
439;DHT22;206;48.782;9.252;2023-04-24T12:27:33;16.50;14.90
439;DHT22;206;48.782;9.252;2023-04-24T12:30:01;16.30;15.50
439;DHT22;206;48.782;9.252;2023-04-24T12:32:27;15.90;15.90
439;DHT22;206;48.782;9.252;2023-04-24T12:34:53;15.70;19.10
439;DHT22;206;48.782;9.252;2023-04-24T12:37:19;15.60;18.50
439;DHT22;206;48.782;9.252;2023-04-24T12:42:31;15.50;19.50
439;DHT22;206;48.782;9.252;2023-04-24T12:45:04;15.70;17.90
439;DHT22;206;48.782;9.252;2023-04-24T12:47:31;15.70;16.80
439;DHT22;206;48.782;9.252;2023-04-24T12:49:57;15.60;16.70
439;DHT22;206;48.782;9.252;2023-04-24T12:52:23;15.70;17.20
439;DHT22;206;48.782;9.252;2023-04-24T12:54:50;15.80;16.10
439;DHT22;206;48.782;9.252;2023-04-24T12:57:16;16.00;15.60
439;DHT22;206;48.782;9.252;2023-04-24T12:59:42;15.90;15.90
439;DHT22;206;48.782;9.252;2023-04-24T13:02:08;15.90;15.50
439;DHT22;206;48.782;9.252;2023-04-24T13:04:35;15.70;15.40
439;DHT22;206;48.782;9.252;2023-04-24T13:07:01;15.50;16.50
439;DHT22;206;48.782;9.252;2023-04-24T13:09:26;15.40;16.90
439;DHT22;206;48.782;9.252;2023-04-24T13:11:52;15.20;17.90
439;DHT22;206;48.782;9.252;2023-04-24T13:14:17;15.10;18.60
439;DHT22;206;48.782;9.252;2023-04-24T13:16:43;14.90;21.80
439;DHT22;206;48.782;9.252;2023-04-24T13:19:08;14.70;24.50
439;DHT22;206;48.782;9.252;2023-04-24T13:21:34;14.80;26.80
439;DHT22;206;48.782;9.252;2023-04-24T13:24:00;15.00;27.20
439;DHT22;206;48.782;9.252;2023-04-24T13:26:26;15.40;26.90
439;DHT22;206;48.782;9.252;2023-04-24T13:28:51;15.60;26.00
439;DHT22;206;48.782;9.252;2023-04-24T13:31:17;15.90;25.30
439;DHT22;206;48.782;9.252;2023-04-24T13:33:42;15.90;25.10
439;DHT22;206;48.782;9.252;2023-04-24T13:36:08;16.10;24.80
439;DHT22;206;48.782;9.252;2023-04-24T13:38:34;16.10;22.50
439;DHT22;206;48.782;9.252;2023-04-24T13:41:00;16.20;23.10
439;DHT22;206;48.782;9.252;2023-04-24T13:43:25;16.40;21.90
439;DHT22;206;48.782;9.252;2023-04-24T13:45:51;16.50;21.40
439;DHT22;206;48.782;9.252;2023-04-24T13:48:17;16.50;21.50
439;DHT22;206;48.782;9.252;2023-04-24T13:50:43;16.60;21.50
439;DHT22;206;48.782;9.252;2023-04-24T13:53:09;16.60;21.60
439;DHT22;206;48.782;9.252;2023-04-24T13:55:35;16.30;21.30
439;DHT22;206;48.782;9.252;2023-04-24T13:58:01;16.20;21.30
439;DHT22;206;48.782;9.252;2023-04-24T14:00:27;15.70;22.00
439;DHT22;206;48.782;9.252;2023-04-24T14:02:53;14.80;27.10
439;DHT22;206;48.782;9.252;2023-04-24T14:05:19;14.30;29.70
439;DHT22;206;48.782;9.252;2023-04-24T14:07:46;14.00;32.30
439;DHT22;206;48.782;9.252;2023-04-24T14:10:11;13.90;35.30
439;DHT22;206;48.782;9.252;2023-04-24T14:12:37;14.00;37.30
439;DHT22;206;48.782;9.252;2023-04-24T14:15:03;14.20;34.00
439;DHT22;206;48.782;9.252;2023-04-24T14:17:30;14.40;33.90
439;DHT22;206;48.782;9.252;2023-04-24T14:19:56;14.70;32.90
439;DHT22;206;48.782;9.252;2023-04-24T14:22:22;15.00;30.50
439;DHT22;206;48.782;9.252;2023-04-24T14:24:48;15.20;29.70
439;DHT22;206;48.782;9.252;2023-04-24T14:27:13;15.30;29.00
439;DHT22;206;48.782;9.252;2023-04-24T14:29:39;15.30;28.50
439;DHT22;206;48.782;9.252;2023-04-24T14:32:05;15.30;26.90
439;DHT22;206;48.782;9.252;2023-04-24T14:34:30;15.30;27.50
439;DHT22;206;48.782;9.252;2023-04-24T14:36:56;15.20;28.70
439;DHT22;206;48.782;9.252;2023-04-24T14:39:21;15.00;26.00
439;DHT22;206;48.782;9.252;2023-04-24T14:41:47;14.80;26.80
439;DHT22;206;48.782;9.252;2023-04-24T14:44:13;14.80;27.60
439;DHT22;206;48.782;9.252;2023-04-24T14:46:39;14.80;27.30
439;DHT22;206;48.782;9.252;2023-04-24T14:49:04;14.90;26.40
439;DHT22;206;48.782;9.252;2023-04-24T14:51:30;14.80;25.00
439;DHT22;206;48.782;9.252;2023-04-24T14:53:56;14.70;23.70
439;DHT22;206;48.782;9.252;2023-04-24T14:56:23;14.80;25.20
439;DHT22;206;48.782;9.252;2023-04-24T14:58:48;14.80;25.40
439;DHT22;206;48.782;9.252;2023-04-24T15:01:14;14.80;25.00
439;DHT22;206;48.782;9.252;2023-04-24T15:03:39;14.80;24.60
439;DHT22;206;48.782;9.252;2023-04-24T15:06:05;14.90;24.80
439;DHT22;206;48.782;9.252;2023-04-24T15:08:31;15.10;24.60
439;DHT22;206;48.782;9.252;2023-04-24T15:10:57;15.40;24.00
439;DHT22;206;48.782;9.252;2023-04-24T15:13:23;15.50;24.30
439;DHT22;206;48.782;9.252;2023-04-24T15:15:49;15.60;23.90
439;DHT22;206;48.782;9.252;2023-04-24T15:18:14;15.60;24.30
439;DHT22;206;48.782;9.252;2023-04-24T15:20:40;15.40;23.20
439;DHT22;206;48.782;9.252;2023-04-24T15:23:08;15.30;23.10
439;DHT22;206;48.782;9.252;2023-04-24T15:25:34;15.10;22.30
439;DHT22;206;48.782;9.252;2023-04-24T15:28:00;15.00;22.70
439;DHT22;206;48.782;9.252;2023-04-24T15:30:26;15.00;22.00
439;DHT22;206;48.782;9.252;2023-04-24T15:32:52;15.00;22.70
439;DHT22;206;48.782;9.252;2023-04-24T15:35:18;15.10;23.00
439;DHT22;206;48.782;9.252;2023-04-24T15:37:43;15.00;23.60
439;DHT22;206;48.782;9.252;2023-04-24T15:40:09;15.00;22.50
439;DHT22;206;48.782;9.252;2023-04-24T15:42:38;14.90;22.30
439;DHT22;206;48.782;9.252;2023-04-24T15:45:04;14.80;22.10
439;DHT22;206;48.782;9.252;2023-04-24T15:47:32;14.70;24.70
439;DHT22;206;48.782;9.252;2023-04-24T15:49:57;14.50;29.20
439;DHT22;206;48.782;9.252;2023-04-24T15:52:23;14.50;29.60
439;DHT22;206;48.782;9.252;2023-04-24T15:54:49;14.50;29.00
439;DHT22;206;48.782;9.252;2023-04-24T15:57:14;14.50;31.10
439;DHT22;206;48.782;9.252;2023-04-24T15:59:40;14.50;29.50
439;DHT22;206;48.782;9.252;2023-04-24T16:02:08;14.60;30.00
439;DHT22;206;48.782;9.252;2023-04-24T16:04:34;14.70;29.50
439;DHT22;206;48.782;9.252;2023-04-24T16:07:00;14.80;28.40
439;DHT22;206;48.782;9.252;2023-04-24T16:09:27;14.80;29.20
439;DHT22;206;48.782;9.252;2023-04-24T16:11:53;15.00;28.80
439;DHT22;206;48.782;9.252;2023-04-24T16:14:18;15.10;28.60
439;DHT22;206;48.782;9.252;2023-04-24T16:16:44;15.10;27.60
439;DHT22;206;48.782;9.252;2023-04-24T16:19:09;15.10;26.30
439;DHT22;206;48.782;9.252;2023-04-24T16:21:35;15.10;27.50
439;DHT22;206;48.782;9.252;2023-04-24T16:24:01;15.00;24.80
439;DHT22;206;48.782;9.252;2023-04-24T16:26:26;14.90;26.80
439;DHT22;206;48.782;9.252;2023-04-24T16:28:52;14.90;27.90
439;DHT22;206;48.782;9.252;2023-04-24T16:31:18;14.90;27.80
439;DHT22;206;48.782;9.252;2023-04-24T16:33:43;14.80;26.80
439;DHT22;206;48.782;9.252;2023-04-24T16:36:09;14.70;27.30
439;DHT22;206;48.782;9.252;2023-04-24T16:38:35;14.70;27.60
439;DHT22;206;48.782;9.252;2023-04-24T16:41:00;14.50;26.90
439;DHT22;206;48.782;9.252;2023-04-24T16:43:26;14.30;27.80
439;DHT22;206;48.782;9.252;2023-04-24T16:45:53;14.20;29.90
439;DHT22;206;48.782;9.252;2023-04-24T16:48:18;14.20;29.30
439;DHT22;206;48.782;9.252;2023-04-24T16:50:44;14.20;29.40
439;DHT22;206;48.782;9.252;2023-04-24T16:53:10;14.20;29.20
439;DHT22;206;48.782;9.252;2023-04-24T16:55:37;14.20;29.80